Terminal Aerodrome Forecast
Issued by NWS

Home | Current Version | Previous Version | Graphics & Text | Print | Product List | Glossary On
Versions: 1 2 3 4 5 6 7 8 9 10 11 12 13
879
FTUS42 KMHX 251737
TAFPGV
TAF
KPGV 251737Z 2518/2618 23015G25KT P6SM VCTS BKN045CB
      TEMPO 2520/2522 5SM TSRA OVC030CB
     FM260000 23011KT P6SM SCT050
     FM260600 24010KT P6SM SKC
     FM261500 27011G18KT P6SM SKC
      AMD LTD TO CLD VIS AND WIND=

USA.gov is the U.S. government's official web portal to all federal, state and local government web resources and services.